createdAt,value
2018-09-19T00:00:58.531Z,7.50
2018-09-19T00:01:58.762Z,7.90
2018-09-19T00:02:58.992Z,8.70
2018-09-19T00:03:59.222Z,8.10
2018-09-19T00:04:59.453Z,8.30
2018-09-19T00:05:59.681Z,8.20
2018-09-19T00:06:59.915Z,8.10
2018-09-19T00:08:00.145Z,8.00
2018-09-19T00:09:00.363Z,8.00
2018-09-19T00:10:00.594Z,8.30
2018-09-19T00:11:00.823Z,8.70
2018-09-19T00:12:01.052Z,8.10
2018-09-19T00:13:01.285Z,8.30
2018-09-19T00:14:01.510Z,7.90
2018-09-19T00:15:01.744Z,8.00
2018-09-19T00:16:01.972Z,8.90
2018-09-19T00:17:02.208Z,8.10
2018-09-19T00:18:02.430Z,8.00
2018-09-19T00:19:02.704Z,7.70
2018-09-19T00:20:02.903Z,8.20
2018-09-19T00:21:03.115Z,8.80
2018-09-19T00:22:03.344Z,8.00
2018-09-19T00:23:03.573Z,8.10
2018-09-19T00:24:03.801Z,8.40
2018-09-19T00:25:04.038Z,8.90
2018-09-19T00:26:04.263Z,8.40
2018-09-19T00:27:04.541Z,8.00
2018-09-19T00:28:04.767Z,8.60
2018-09-19T00:29:04.998Z,8.40
2018-09-19T00:30:05.227Z,8.60
2018-09-19T00:31:05.460Z,8.10
2018-09-19T00:32:05.685Z,8.30
2018-09-19T00:33:05.918Z,8.50
2018-09-19T00:34:06.148Z,7.90
2018-09-19T00:35:06.383Z,8.10
2018-09-19T00:36:06.617Z,8.00
2018-09-19T00:37:06.840Z,8.80
2018-09-19T00:38:07.067Z,8.40
2018-09-19T00:39:07.305Z,8.50
2018-09-19T00:40:07.534Z,8.20
2018-09-19T00:41:07.756Z,8.60
2018-09-19T00:42:07.986Z,8.60
2018-09-19T00:43:08.217Z,8.80
2018-09-19T00:44:08.446Z,8.80
2018-09-19T00:45:08.674Z,8.50
2018-09-19T00:46:08.906Z,8.80
2018-09-19T00:47:09.135Z,8.80
2018-09-19T00:48:09.365Z,9.20
2018-09-19T00:49:09.593Z,9.00
2018-09-19T00:50:09.825Z,9.00
2018-09-19T00:51:10.053Z,9.30
2018-09-19T00:52:10.283Z,9.30
2018-09-19T00:53:10.515Z,9.40
2018-09-19T00:54:10.744Z,9.20
2018-09-19T00:55:10.971Z,9.10
2018-09-19T00:56:11.203Z,9.30
2018-09-19T00:57:11.433Z,9.80
2018-09-19T00:58:11.659Z,9.30
2018-09-19T00:59:11.891Z,8.60
2018-09-19T01:00:12.120Z,9.00
2018-09-19T01:01:12.346Z,9.50
2018-09-19T01:02:12.574Z,8.70
2018-09-19T01:03:12.806Z,9.00
2018-09-19T01:04:13.034Z,9.10
2018-09-19T01:05:13.267Z,9.40
2018-09-19T01:06:13.496Z,8.70
2018-09-19T01:07:13.723Z,9.00
2018-09-19T01:08:13.950Z,8.50
2018-09-19T01:09:14.178Z,8.70
2018-09-19T01:10:14.407Z,8.40
2018-09-19T01:11:14.638Z,8.90
2018-09-19T01:12:14.868Z,9.70
2018-09-19T01:13:15.103Z,8.80
2018-09-19T01:14:15.329Z,9.30
2018-09-19T01:15:15.559Z,9.10
2018-09-19T01:16:15.788Z,9.20
2018-09-19T01:17:16.017Z,9.30
2018-09-19T01:18:16.246Z,10.10
2018-09-19T01:19:16.475Z,9.30
2018-09-19T01:20:16.705Z,9.20
2018-09-19T01:21:16.937Z,9.20
2018-09-19T01:22:17.164Z,8.90
2018-09-19T01:23:17.393Z,10.30
2018-09-19T01:24:17.623Z,10.20
2018-09-19T01:25:17.854Z,10.00
2018-09-19T01:26:18.081Z,10.30
2018-09-19T01:27:18.312Z,10.10
2018-09-19T01:28:18.544Z,9.70
2018-09-19T01:29:18.769Z,9.50
2018-09-19T01:30:19.001Z,10.00
2018-09-19T01:31:19.231Z,10.00
2018-09-19T01:32:19.459Z,9.60
2018-09-19T01:33:19.692Z,10.40
2018-09-19T01:34:19.920Z,9.70
2018-09-19T01:35:20.146Z,9.70
2018-09-19T01:36:20.381Z,9.70
2018-09-19T01:37:20.613Z,9.50
2018-09-19T01:38:20.840Z,9.10
2018-09-19T01:39:21.069Z,9.60
2018-09-19T01:40:21.299Z,9.90
2018-09-19T01:41:21.525Z,9.30
2018-09-19T01:42:21.757Z,9.40
2018-09-19T01:43:22.003Z,10.00
2018-09-19T01:44:22.213Z,9.40
2018-09-19T01:45:22.442Z,9.70
2018-09-19T01:46:22.671Z,10.00
2018-09-19T01:47:22.899Z,10.30
2018-09-19T01:48:23.129Z,9.20
2018-09-19T01:49:23.363Z,10.00
2018-09-19T01:50:23.589Z,10.30
2018-09-19T01:51:23.819Z,10.50
2018-09-19T01:52:24.048Z,9.90
2018-09-19T01:53:24.282Z,10.70
2018-09-19T01:54:24.510Z,10.30
2018-09-19T01:55:24.740Z,10.10
2018-09-19T01:56:24.969Z,9.70
2018-09-19T01:57:25.200Z,9.30
2018-09-19T01:58:25.430Z,9.60
2018-09-19T01:59:25.657Z,10.20
2018-09-19T02:00:25.939Z,10.00
2018-09-19T02:01:26.117Z,9.70
2018-09-19T02:02:26.348Z,10.20
2018-09-19T02:03:26.582Z,9.70
2018-09-19T02:04:26.807Z,9.60
2018-09-19T02:05:27.037Z,9.50
2018-09-19T02:06:27.269Z,9.70
2018-09-19T02:07:27.495Z,9.10
2018-09-19T02:08:27.727Z,9.40
2018-09-19T02:09:27.958Z,9.60
2018-09-19T02:10:28.184Z,9.40
2018-09-19T02:11:28.411Z,9.40
2018-09-19T02:12:28.645Z,9.20
2018-09-19T02:13:28.876Z,9.10
2018-09-19T02:14:29.105Z,9.20
2018-09-19T02:15:29.334Z,8.80
2018-09-19T02:16:29.563Z,9.40
2018-09-19T02:17:29.793Z,9.30
2018-09-19T02:18:30.022Z,9.30
2018-09-19T02:19:30.251Z,9.10
2018-09-19T02:20:30.480Z,9.30
2018-09-19T02:21:30.711Z,9.20
2018-09-19T02:22:30.944Z,9.70
2018-09-19T02:23:31.169Z,9.20
2018-09-19T02:24:31.396Z,9.50
2018-09-19T02:25:31.628Z,9.10
2018-09-19T02:26:31.857Z,9.70
2018-09-19T02:27:32.085Z,8.90
2018-09-19T02:28:32.371Z,9.10
2018-09-19T02:29:32.544Z,9.20
2018-09-19T02:30:32.777Z,9.10
2018-09-19T02:31:33.002Z,8.80
2018-09-19T02:32:33.236Z,8.60
2018-09-19T02:33:33.463Z,8.80
2018-09-19T02:34:33.710Z,9.00
2018-09-19T02:35:33.924Z,8.80
2018-09-19T02:36:34.158Z,9.40
2018-09-19T02:37:34.399Z,8.70
2018-09-19T02:38:34.620Z,8.50
2018-09-19T02:39:34.847Z,9.00
2018-09-19T02:40:35.081Z,9.40
2018-09-19T02:41:35.306Z,8.50
2018-09-19T02:42:35.537Z,9.10
2018-09-19T02:43:35.763Z,9.20
2018-09-19T02:44:35.997Z,9.30
2018-09-19T02:45:36.218Z,9.10
2018-09-19T02:46:36.448Z,9.30
2018-09-19T02:47:36.679Z,9.30
2018-09-19T02:48:36.912Z,9.40
2018-09-19T02:49:37.138Z,9.20
2018-09-19T02:50:37.366Z,9.00
2018-09-19T02:51:37.598Z,9.00
2018-09-19T02:52:37.825Z,9.20
2018-09-19T02:53:38.057Z,9.20
2018-09-19T02:54:38.284Z,9.00
2018-09-19T02:55:38.513Z,9.00
2018-09-19T02:56:38.740Z,9.00
2018-09-19T02:57:38.972Z,9.90
2018-09-19T02:58:39.202Z,9.20
2018-09-19T02:59:39.447Z,8.70
2018-09-19T03:00:39.661Z,9.10
2018-09-19T03:01:39.889Z,8.10
2018-09-19T03:02:40.118Z,8.80
2018-09-19T03:03:40.349Z,8.50
2018-09-19T03:04:40.577Z,8.90
2018-09-19T03:05:40.808Z,9.40
2018-09-19T03:06:41.034Z,8.90
2018-09-19T03:07:41.267Z,9.00
2018-09-19T03:08:41.492Z,9.30
2018-09-19T03:09:41.722Z,8.60
2018-09-19T03:10:41.950Z,9.00
2018-09-19T03:11:42.181Z,9.70
2018-09-19T03:12:42.411Z,9.70
2018-09-19T03:13:42.640Z,9.30
2018-09-19T03:14:42.869Z,9.70
2018-09-19T03:15:43.098Z,8.90
2018-09-19T03:16:43.329Z,9.90
2018-09-19T03:17:43.837Z,9.20
2018-09-19T03:18:43.784Z,9.10
2018-09-19T03:19:44.014Z,9.40
2018-09-19T03:20:44.244Z,9.20
2018-09-19T03:21:44.476Z,8.60
2018-09-19T03:22:44.704Z,9.20
2018-09-19T03:23:44.933Z,9.50
2018-09-19T03:24:45.171Z,9.70
2018-09-19T03:25:45.392Z,9.20
2018-09-19T03:26:45.624Z,9.30
2018-09-19T03:27:45.854Z,9.90
2018-09-19T03:28:46.080Z,9.60
2018-09-19T03:29:46.314Z,9.00
2018-09-19T03:30:46.543Z,8.60
2018-09-19T03:31:46.771Z,9.30
2018-09-19T03:32:47.026Z,9.80
2018-09-19T03:33:47.221Z,9.30
2018-09-19T03:34:47.447Z,8.90
2018-09-19T03:35:47.676Z,9.60
2018-09-19T03:36:47.906Z,12.10
2018-09-19T03:37:48.134Z,10.90
2018-09-19T03:38:48.365Z,11.60
2018-09-19T03:39:48.593Z,10.10
2018-09-19T03:40:48.826Z,9.80
2018-09-19T03:41:49.055Z,9.60
2018-09-19T03:42:49.282Z,10.10
2018-09-19T03:43:49.513Z,9.90
2018-09-19T03:44:49.769Z,9.60
2018-09-19T03:45:49.978Z,9.90
2018-09-19T03:46:50.203Z,9.90
2018-09-19T03:47:50.455Z,10.30
2018-09-19T03:48:50.660Z,10.10
2018-09-19T03:49:50.895Z,9.60
2018-09-19T03:50:51.120Z,9.60
2018-09-19T03:51:51.352Z,10.00
2018-09-19T03:52:51.580Z,9.80
2018-09-19T03:53:51.817Z,10.20
2018-09-19T03:54:52.038Z,10.10
2018-09-19T03:55:52.269Z,10.10
2018-09-19T03:56:52.511Z,10.00
2018-09-19T03:57:52.730Z,10.30
2018-09-19T03:58:52.961Z,10.20
2018-09-19T03:59:53.190Z,10.20
2018-09-19T04:00:53.418Z,10.40
2018-09-19T04:01:53.651Z,10.60
2018-09-19T04:02:53.882Z,10.20
2018-09-19T04:03:54.119Z,10.40
2018-09-19T04:04:54.346Z,10.90
2018-09-19T04:05:54.570Z,10.10
2018-09-19T04:06:54.801Z,9.90
2018-09-19T04:07:55.042Z,10.20
2018-09-19T04:08:55.258Z,9.70
2018-09-19T04:09:55.487Z,10.30
2018-09-19T04:10:55.714Z,10.00
2018-09-19T04:11:55.954Z,10.40
2018-09-19T04:12:56.182Z,9.90
2018-09-19T04:13:56.408Z,10.20
2018-09-19T04:14:56.638Z,10.50
2018-09-19T04:15:56.862Z,9.90
2018-09-19T04:16:57.092Z,9.70
2018-09-19T04:17:57.480Z,10.50
2018-09-19T04:18:57.550Z,10.30
2018-09-19T04:19:57.781Z,10.20
2018-09-19T04:20:58.007Z,10.50
2018-09-19T04:21:58.286Z,10.20
2018-09-19T04:22:58.470Z,10.40
2018-09-19T04:23:58.698Z,10.90
2018-09-19T04:24:58.928Z,10.60
2018-09-19T04:25:59.156Z,10.80
2018-09-19T04:26:59.383Z,10.60
2018-09-19T04:27:59.617Z,10.40
2018-09-19T04:28:59.844Z,10.20
2018-09-19T04:30:00.081Z,10.70
2018-09-19T04:31:00.308Z,10.40
2018-09-19T04:32:00.539Z,12.40
2018-09-19T04:33:00.762Z,11.50
2018-09-19T04:34:00.993Z,10.70
2018-09-19T04:35:01.220Z,11.00
2018-09-19T04:36:01.453Z,10.80
2018-09-19T04:37:01.683Z,11.10
2018-09-19T04:38:01.912Z,10.70
2018-09-19T04:39:02.151Z,10.50
2018-09-19T04:40:02.374Z,10.10
2018-09-19T04:41:02.600Z,10.90
2018-09-19T04:42:02.828Z,10.40
2018-09-19T04:43:03.061Z,10.60
2018-09-19T04:44:03.287Z,10.00
2018-09-19T04:45:03.544Z,10.00
2018-09-19T04:46:03.747Z,10.30
2018-09-19T04:47:03.976Z,10.70
2018-09-19T04:48:04.205Z,10.90
2018-09-19T04:49:04.436Z,10.30
2018-09-19T04:50:04.669Z,11.00
2018-09-19T04:51:04.898Z,10.90
2018-09-19T04:52:05.138Z,10.70
2018-09-19T04:53:05.357Z,11.10
2018-09-19T04:54:05.585Z,11.00
2018-09-19T04:55:05.821Z,10.90
2018-09-19T04:56:06.048Z,10.90
2018-09-19T04:57:06.277Z,10.80
2018-09-19T04:58:06.503Z,10.40
2018-09-19T04:59:06.735Z,10.70
2018-09-19T05:00:06.967Z,11.00
2018-09-19T05:01:07.241Z,11.80
2018-09-19T05:02:07.428Z,11.10
2018-09-19T05:03:07.653Z,10.70
2018-09-19T05:04:07.889Z,10.70
2018-09-19T05:05:08.114Z,11.00
2018-09-19T05:06:08.345Z,10.80
2018-09-19T05:07:08.579Z,11.20
2018-09-19T05:08:08.804Z,11.90
2018-09-19T05:09:09.036Z,12.10
2018-09-19T05:10:09.267Z,11.20
2018-09-19T05:11:09.500Z,11.20
2018-09-19T05:12:09.726Z,11.30
2018-09-19T05:13:09.959Z,12.30
2018-09-19T05:14:10.187Z,11.10
2018-09-19T05:15:10.416Z,11.00
2018-09-19T05:16:10.665Z,11.40
2018-09-19T05:17:10.878Z,11.90
2018-09-19T05:18:11.104Z,11.90
2018-09-19T05:19:11.344Z,11.20
2018-09-19T05:20:11.575Z,11.80
2018-09-19T05:21:11.802Z,11.20
2018-09-19T05:22:12.026Z,11.30
2018-09-19T05:23:12.257Z,12.20
2018-09-19T05:24:12.487Z,11.00
2018-09-19T05:25:12.720Z,10.80
2018-09-19T05:26:12.958Z,10.80
2018-09-19T05:27:13.177Z,10.40
2018-09-19T05:28:13.409Z,11.60
2018-09-19T05:29:13.645Z,10.50
2018-09-19T05:30:13.870Z,10.70
2018-09-19T05:31:14.099Z,10.30
2018-09-19T05:32:14.318Z,11.50
2018-09-19T05:33:14.547Z,11.60
2018-09-19T05:34:14.779Z,11.10
2018-09-19T05:35:15.006Z,10.80
2018-09-19T05:36:15.236Z,10.90
2018-09-19T05:37:15.462Z,11.60
2018-09-19T05:38:15.692Z,10.90
2018-09-19T05:39:15.925Z,10.90
2018-09-19T05:40:16.153Z,11.00
2018-09-19T05:41:16.383Z,10.50
2018-09-19T05:42:16.616Z,10.50
2018-09-19T05:43:16.848Z,10.40
2018-09-19T05:44:17.073Z,10.30
2018-09-19T05:45:17.303Z,10.60
2018-09-19T05:46:17.565Z,9.80
2018-09-19T05:47:17.764Z,10.40
2018-09-19T05:48:17.996Z,9.70
2018-09-19T05:49:18.231Z,10.00
2018-09-19T05:50:18.455Z,10.30
2018-09-19T05:51:18.690Z,10.10
2018-09-19T05:52:18.919Z,9.40
2018-09-19T05:53:19.149Z,9.40
2018-09-19T05:54:19.426Z,10.30
2018-09-19T05:55:19.613Z,9.90
2018-09-19T05:56:19.840Z,9.00
2018-09-19T05:57:20.072Z,9.50
2018-09-19T05:58:20.303Z,9.50
2018-09-19T05:59:20.541Z,9.40
2018-09-19T06:00:20.762Z,10.00
2018-09-19T06:01:20.999Z,9.60
2018-09-19T06:02:21.226Z,9.70
2018-09-19T06:03:21.457Z,9.70
2018-09-19T06:04:21.688Z,9.10
2018-09-19T06:05:21.920Z,8.70
2018-09-19T06:06:22.152Z,9.90
2018-09-19T06:07:22.386Z,9.20
2018-09-19T06:08:22.618Z,9.10
2018-09-19T06:09:22.852Z,9.60
2018-09-19T06:10:23.080Z,9.80
2018-09-19T06:11:23.310Z,9.30
2018-09-19T06:12:23.543Z,9.60
2018-09-19T06:13:23.774Z,9.60
2018-09-19T06:14:24.006Z,9.50
2018-09-19T06:15:24.239Z,10.10
2018-09-19T06:16:24.470Z,10.30
2018-09-19T06:17:24.702Z,9.50
2018-09-19T06:18:24.930Z,9.70
2018-09-19T06:19:25.163Z,9.50
2018-09-19T06:20:25.396Z,10.00
2018-09-19T06:21:25.622Z,9.70
2018-09-19T06:22:25.865Z,8.40
2018-09-19T06:23:26.103Z,9.50
2018-09-19T06:24:26.325Z,9.10
2018-09-19T06:25:26.556Z,9.20
2018-09-19T06:26:26.789Z,9.90
2018-09-19T06:27:27.018Z,9.20
2018-09-19T06:28:27.254Z,8.90
2018-09-19T06:29:27.485Z,9.00
2018-09-19T06:30:27.718Z,9.00
2018-09-19T06:31:27.945Z,8.80
2018-09-19T06:32:28.185Z,8.70
2018-09-19T06:33:28.425Z,9.10
2018-09-19T06:34:28.655Z,8.90
2018-09-19T06:35:28.878Z,9.30
2018-09-19T06:36:29.108Z,9.10
2018-09-19T06:37:29.345Z,9.10
2018-09-19T06:38:29.631Z,9.40
2018-09-19T06:39:29.822Z,9.40
2018-09-19T06:40:30.059Z,9.70
2018-09-19T06:41:30.272Z,9.00
2018-09-19T06:42:30.501Z,13.30
2018-09-19T06:43:30.733Z,12.50
2018-09-19T06:44:30.969Z,9.90
2018-09-19T06:45:31.229Z,10.00
2018-09-19T06:46:31.429Z,9.20
2018-09-19T06:47:31.662Z,9.90
2018-09-19T06:48:31.895Z,9.70
2018-09-19T06:49:32.122Z,9.50
2018-09-19T06:50:32.357Z,10.20
2018-09-19T06:51:32.585Z,9.90
2018-09-19T06:52:32.959Z,9.70
2018-09-19T06:53:33.048Z,10.30
2018-09-19T06:54:33.281Z,10.10
2018-09-19T06:55:33.520Z,10.50
2018-09-19T06:56:33.750Z,10.00
2018-09-19T06:57:33.985Z,9.60
2018-09-19T06:58:34.215Z,11.40
2018-09-19T06:59:34.492Z,9.90
2018-09-19T07:00:34.684Z,10.70
2018-09-19T07:01:34.922Z,11.00
2018-09-19T07:02:35.145Z,10.00
2018-09-19T07:03:35.378Z,9.80
2018-09-19T07:04:35.623Z,10.10
2018-09-19T07:05:35.883Z,10.30
2018-09-19T07:06:36.067Z,10.40
2018-09-19T07:07:36.297Z,9.90
2018-09-19T07:08:36.528Z,9.60
2018-09-19T07:09:36.761Z,10.60
2018-09-19T07:10:37.057Z,9.80
2018-09-19T07:11:37.316Z,9.90
2018-09-19T07:12:37.457Z,9.40
2018-09-19T07:13:37.689Z,9.40
2018-09-19T07:14:37.930Z,9.70
2018-09-19T07:15:38.158Z,10.10
2018-09-19T07:16:38.379Z,10.30
2018-09-19T07:17:38.606Z,10.60
2018-09-19T07:18:38.839Z,10.10
2018-09-19T07:19:39.088Z,10.20
2018-09-19T07:20:39.304Z,10.20
2018-09-19T07:21:39.537Z,9.80
2018-09-19T07:22:39.776Z,9.80
2018-09-19T07:23:40.055Z,10.00
2018-09-19T07:24:40.239Z,10.40
2018-09-19T07:25:40.467Z,10.60
2018-09-19T07:26:40.699Z,10.50
2018-09-19T07:27:40.935Z,10.00
2018-09-19T07:28:41.165Z,9.70
2018-09-19T07:29:41.397Z,10.50
2018-09-19T07:30:41.625Z,10.50
2018-09-19T07:31:41.859Z,10.40
2018-09-19T07:32:42.089Z,10.00
2018-09-19T07:33:42.319Z,10.40
2018-09-19T07:34:42.580Z,10.40
2018-09-19T07:35:42.788Z,9.90
2018-09-19T07:36:43.018Z,10.00
2018-09-19T07:37:43.257Z,10.40
2018-09-19T07:38:43.481Z,10.10
2018-09-19T07:39:43.713Z,9.90
2018-09-19T07:40:43.946Z,9.80
2018-09-19T07:41:44.178Z,10.40
2018-09-19T07:42:44.414Z,10.00
2018-09-19T07:43:44.643Z,9.90
2018-09-19T07:44:44.872Z,9.50
2018-09-19T07:45:45.107Z,10.10
2018-09-19T07:46:45.419Z,9.60
2018-09-19T07:47:45.570Z,10.00
2018-09-19T07:48:45.803Z,10.10
2018-09-19T07:49:46.044Z,9.70
2018-09-19T07:50:46.269Z,9.60
2018-09-19T07:51:46.499Z,10.00
2018-09-19T07:52:46.732Z,10.40
2018-09-19T07:53:46.967Z,9.70
2018-09-19T07:54:47.283Z,10.00
2018-09-19T07:55:47.433Z,10.10
2018-09-19T07:56:47.678Z,10.70
2018-09-19T07:57:47.897Z,11.00
2018-09-19T07:58:48.131Z,10.30
2018-09-19T07:59:48.363Z,9.60
2018-09-19T08:00:48.752Z,10.20
2018-09-19T08:01:48.823Z,9.60
2018-09-19T08:02:49.058Z,9.80
2018-09-19T08:03:49.287Z,11.00
2018-09-19T08:04:49.520Z,10.10
2018-09-19T08:05:49.754Z,10.20
2018-09-19T08:06:49.986Z,10.30
2018-09-19T08:07:50.224Z,10.20
2018-09-19T08:08:50.457Z,9.60
2018-09-19T08:09:50.687Z,10.10
2018-09-19T08:10:50.919Z,10.10
2018-09-19T08:11:51.152Z,9.50
2018-09-19T08:12:51.382Z,10.00
2018-09-19T08:13:51.615Z,9.60
2018-09-19T08:14:51.850Z,9.20
2018-09-19T08:15:52.092Z,9.50
2018-09-19T08:16:52.324Z,9.60
2018-09-19T08:17:52.554Z,9.40
2018-09-19T08:18:52.784Z,9.70
2018-09-19T08:19:53.016Z,9.00
2018-09-19T08:20:53.249Z,9.40
2018-09-19T08:21:53.483Z,9.70
2018-09-19T08:22:53.719Z,9.80
2018-09-19T08:23:53.952Z,9.90
2018-09-19T08:24:54.221Z,8.90
2018-09-19T08:25:54.454Z,8.90
2018-09-19T08:26:54.696Z,9.10
2018-09-19T08:27:54.924Z,9.20
2018-09-19T08:28:55.161Z,8.60
2018-09-19T08:29:55.394Z,8.40
2018-09-19T08:30:55.626Z,9.10
2018-09-19T08:31:55.867Z,9.50
2018-09-19T08:32:56.094Z,9.30
2018-09-19T08:33:56.330Z,9.90
2018-09-19T08:34:56.558Z,8.70
2018-09-19T08:35:56.794Z,8.70
2018-09-19T08:36:57.026Z,9.10
2018-09-19T08:37:57.259Z,9.10
2018-09-19T08:38:57.493Z,8.60
2018-09-19T08:39:57.730Z,9.00
2018-09-19T08:40:57.960Z,8.70
2018-09-19T08:41:58.184Z,8.40
2018-09-19T08:42:58.429Z,9.10
2018-09-19T08:43:58.659Z,9.40
2018-09-19T08:44:58.893Z,9.10
2018-09-19T08:45:59.133Z,9.10
2018-09-19T08:46:59.363Z,8.50
2018-09-19T08:47:59.598Z,8.90
2018-09-19T08:48:59.830Z,8.40
2018-09-19T08:50:00.068Z,8.30
2018-09-19T08:51:00.299Z,8.30
2018-09-19T08:52:00.531Z,8.60
2018-09-19T08:53:00.764Z,8.70
2018-09-19T08:54:01.002Z,8.80
2018-09-19T08:55:01.234Z,8.40
2018-09-19T08:56:01.469Z,8.80
2018-09-19T08:57:01.760Z,8.10
2018-09-19T08:58:01.937Z,8.00
2018-09-19T08:59:02.175Z,8.60
2018-09-19T09:00:02.408Z,8.30
2018-09-19T09:01:02.642Z,8.50
2018-09-19T09:02:02.878Z,8.00
2018-09-19T09:03:03.110Z,7.70
2018-09-19T09:04:03.347Z,7.60
2018-09-19T09:05:03.586Z,7.90
2018-09-19T09:06:03.815Z,8.90
2018-09-19T09:07:04.047Z,8.00
2018-09-19T09:08:04.284Z,7.80
2018-09-19T09:09:04.519Z,8.20
2018-09-19T09:10:04.754Z,7.90
2018-09-19T09:11:04.989Z,8.20
2018-09-19T09:12:05.225Z,8.50
2018-09-19T09:13:05.458Z,7.90
2018-09-19T09:14:05.692Z,7.10
2018-09-19T09:15:05.924Z,7.50
2018-09-19T09:16:06.157Z,7.50
2018-09-19T09:17:06.392Z,8.00
2018-09-19T09:18:06.626Z,9.00
2018-09-19T09:19:06.862Z,9.40
2018-09-19T09:20:07.103Z,9.40
2018-09-19T09:21:07.332Z,8.70
2018-09-19T09:22:07.568Z,9.10
2018-09-19T09:23:07.853Z,8.10
2018-09-19T09:24:08.035Z,8.10
2018-09-19T09:25:08.291Z,7.80
2018-09-19T09:26:08.563Z,7.30
2018-09-19T09:27:08.838Z,7.30
2018-09-19T09:28:08.974Z,6.80
2018-09-19T09:29:09.206Z,7.30
2018-09-19T09:30:09.441Z,7.20
2018-09-19T09:31:09.745Z,6.90
2018-09-19T09:32:09.909Z,6.50
2018-09-19T09:33:10.149Z,6.20
2018-09-19T09:34:10.440Z,6.10
2018-09-19T09:35:10.611Z,6.60
2018-09-19T09:36:10.845Z,6.10
2018-09-19T09:37:11.083Z,5.90
2018-09-19T09:38:11.318Z,6.60
2018-09-19T09:39:11.550Z,6.10
2018-09-19T09:40:11.786Z,5.60
2018-09-19T09:41:12.020Z,6.90
2018-09-19T09:42:12.257Z,6.00
2018-09-19T09:43:12.490Z,5.90
2018-09-19T09:44:12.729Z,6.10
2018-09-19T09:45:12.962Z,5.80
2018-09-19T09:46:13.194Z,6.20
2018-09-19T09:47:13.430Z,5.80
2018-09-19T09:48:13.665Z,6.10
2018-09-19T09:49:13.900Z,5.90
2018-09-19T09:50:14.180Z,6.40
2018-09-19T09:51:14.373Z,5.70
2018-09-19T09:52:14.600Z,5.70
2018-09-19T09:53:14.877Z,5.60
2018-09-19T09:54:15.071Z,6.10
2018-09-19T09:55:15.370Z,6.00
2018-09-19T09:56:15.541Z,6.40
2018-09-19T09:57:15.780Z,6.00
2018-09-19T09:58:16.012Z,5.90
2018-09-19T09:59:16.262Z,6.50
2018-09-19T10:00:16.484Z,5.40
2018-09-19T10:01:16.718Z,5.20
2018-09-19T10:02:16.954Z,5.30
2018-09-19T10:03:17.187Z,5.10
2018-09-19T10:04:17.422Z,5.50
2018-09-19T10:05:17.691Z,5.40
2018-09-19T10:06:17.921Z,5.10
2018-09-19T10:07:18.132Z,5.40
2018-09-19T10:08:18.404Z,4.90
2018-09-19T10:09:18.599Z,5.20
2018-09-19T10:10:18.835Z,4.80
2018-09-19T10:11:19.069Z,4.70
2018-09-19T10:12:19.303Z,5.30
2018-09-19T10:13:19.538Z,4.80
2018-09-19T10:14:19.775Z,4.70
2018-09-19T10:15:20.011Z,5.00
2018-09-19T10:16:20.242Z,4.70
2018-09-19T10:17:20.477Z,4.60
2018-09-19T10:18:20.714Z,4.50
2018-09-19T10:19:20.953Z,4.40
2018-09-19T10:20:21.186Z,4.80
2018-09-19T10:21:21.420Z,4.60
2018-09-19T10:22:21.657Z,4.50
2018-09-19T10:23:21.894Z,4.20
2018-09-19T10:24:22.133Z,4.70
2018-09-19T10:25:22.363Z,4.80
2018-09-19T10:26:22.601Z,4.60
2018-09-19T10:27:22.840Z,4.60
2018-09-19T10:28:23.072Z,4.50
2018-09-19T10:29:23.319Z,4.60
2018-09-19T10:30:23.545Z,4.40
2018-09-19T10:31:23.782Z,4.90
2018-09-19T10:32:24.019Z,4.40
2018-09-19T10:33:24.253Z,4.50
2018-09-19T10:34:24.490Z,4.30
2018-09-19T10:35:24.766Z,4.20
2018-09-19T10:36:24.963Z,4.30
2018-09-19T10:37:25.199Z,4.30
2018-09-19T10:38:25.435Z,4.50
2018-09-19T10:39:25.668Z,4.00
2018-09-19T10:40:25.903Z,4.20
2018-09-19T10:41:26.140Z,3.80
2018-09-19T10:42:26.375Z,4.40
2018-09-19T10:43:26.612Z,4.40
2018-09-19T10:44:26.848Z,4.20
2018-09-19T10:45:27.084Z,4.10
2018-09-19T10:46:27.317Z,4.40
2018-09-19T10:47:27.552Z,4.30
2018-09-19T10:48:27.793Z,4.20
2018-09-19T10:49:28.063Z,4.20
2018-09-19T10:50:28.271Z,3.60
2018-09-19T10:51:28.503Z,3.70
2018-09-19T10:52:28.739Z,3.60
2018-09-19T10:53:28.973Z,3.60
2018-09-19T10:54:29.209Z,3.70
2018-09-19T10:55:29.449Z,3.90
2018-09-19T10:56:29.681Z,3.60
2018-09-19T10:57:29.929Z,3.70
2018-09-19T10:58:30.154Z,3.20
2018-09-19T10:59:30.388Z,3.40
2018-09-19T11:00:30.624Z,3.40
2018-09-19T11:01:30.858Z,3.40
2018-09-19T11:02:31.095Z,3.50
2018-09-19T11:03:31.333Z,3.30
2018-09-19T11:04:31.577Z,3.70
2018-09-19T11:05:31.804Z,3.70
2018-09-19T11:06:32.049Z,4.10
2018-09-19T11:07:32.278Z,3.10
2018-09-19T11:08:32.516Z,2.90
2018-09-19T11:09:32.750Z,2.90
2018-09-19T11:10:32.985Z,3.10
2018-09-19T11:11:33.224Z,2.90
2018-09-19T11:12:33.458Z,3.20
2018-09-19T11:13:33.695Z,3.30
2018-09-19T11:14:33.931Z,3.40
2018-09-19T11:15:34.166Z,2.80
2018-09-19T11:16:34.401Z,2.90
2018-09-19T11:17:34.637Z,3.00
2018-09-19T11:18:34.875Z,2.80
2018-09-19T11:19:35.110Z,2.70
2018-09-19T11:20:35.347Z,2.90
2018-09-19T11:21:35.584Z,2.80
2018-09-19T11:22:35.818Z,2.90
2018-09-19T11:23:36.055Z,2.70
2018-09-19T11:24:36.295Z,2.80
2018-09-19T11:25:36.532Z,2.80
2018-09-19T11:26:36.762Z,2.80
2018-09-19T11:27:37.000Z,2.90
2018-09-19T11:28:37.235Z,3.10
2018-09-19T11:29:37.470Z,2.70
2018-09-19T11:30:37.707Z,2.50
2018-09-19T11:31:37.945Z,2.90
2018-09-19T11:32:38.179Z,2.40
2018-09-19T11:33:38.479Z,3.50
2018-09-19T11:34:38.652Z,2.90
2018-09-19T11:35:38.888Z,3.00
2018-09-19T11:36:39.124Z,2.70
2018-09-19T11:37:39.361Z,2.80
2018-09-19T11:38:39.597Z,2.90
2018-09-19T11:39:39.838Z,2.80
2018-09-19T11:40:40.064Z,2.90
2018-09-19T11:41:40.304Z,2.80
2018-09-19T11:42:40.542Z,2.90
2018-09-19T11:43:40.777Z,3.00
2018-09-19T11:44:41.013Z,2.80
2018-09-19T11:45:41.249Z,2.70
2018-09-19T11:46:41.486Z,2.80
2018-09-19T11:47:41.721Z,2.80
2018-09-19T11:48:42.009Z,2.80
2018-09-19T11:49:42.194Z,2.60
2018-09-19T11:50:42.430Z,2.50
2018-09-19T11:51:42.667Z,3.00
2018-09-19T11:52:42.904Z,2.60
2018-09-19T11:53:43.140Z,2.70
2018-09-19T11:54:43.375Z,3.00
2018-09-19T11:55:43.615Z,2.70
2018-09-19T11:56:43.847Z,3.00
2018-09-19T11:57:44.085Z,2.80
2018-09-19T11:58:44.319Z,2.90
2018-09-19T11:59:44.559Z,2.90
2018-09-19T12:00:44.793Z,2.90
2018-09-19T12:01:45.030Z,3.00
2018-09-19T12:02:45.267Z,2.70
2018-09-19T12:03:45.503Z,2.60
2018-09-19T12:04:45.739Z,3.00
2018-09-19T12:05:45.975Z,2.80
2018-09-19T12:06:46.211Z,2.80
2018-09-19T12:07:46.446Z,2.80
2018-09-19T12:08:46.684Z,2.90
2018-09-19T12:09:46.919Z,3.10
2018-09-19T12:10:47.159Z,2.80
2018-09-19T12:11:47.397Z,3.10
2018-09-19T12:12:47.629Z,3.10
2018-09-19T12:13:47.868Z,3.10
2018-09-19T12:14:48.102Z,3.30
2018-09-19T12:15:48.339Z,3.00
2018-09-19T12:16:48.575Z,3.00
2018-09-19T12:17:48.812Z,2.80
2018-09-19T12:18:49.050Z,2.90
2018-09-19T12:19:49.287Z,3.30
2018-09-19T12:20:49.524Z,2.90
2018-09-19T12:21:49.761Z,3.00
2018-09-19T12:22:50.001Z,3.00
2018-09-19T12:23:50.232Z,3.10
2018-09-19T12:24:50.469Z,2.90
2018-09-19T12:25:50.704Z,3.00
2018-09-19T12:26:50.940Z,3.00
2018-09-19T12:27:51.175Z,3.10
2018-09-19T12:28:51.412Z,3.00
2018-09-19T12:29:51.649Z,3.00
2018-09-19T12:30:51.885Z,3.40
2018-09-19T12:31:52.122Z,3.10
2018-09-19T12:32:52.358Z,3.40
2018-09-19T12:33:52.609Z,3.20
2018-09-19T12:34:52.833Z,2.90
2018-09-19T12:35:53.064Z,2.90
2018-09-19T12:36:53.300Z,3.20
2018-09-19T12:37:53.541Z,3.00
2018-09-19T12:38:53.784Z,3.20
2018-09-19T12:39:54.024Z,3.10
2018-09-19T12:40:54.258Z,3.00
2018-09-19T12:41:54.498Z,2.90
2018-09-19T12:42:54.737Z,2.90
2018-09-19T12:43:54.975Z,3.00
2018-09-19T12:44:55.211Z,3.10
2018-09-19T12:45:55.449Z,3.00
2018-09-19T12:46:55.682Z,2.90
2018-09-19T12:47:55.917Z,3.10
2018-09-19T12:48:56.157Z,3.00
2018-09-19T12:49:56.394Z,3.00
2018-09-19T12:50:56.630Z,3.20
2018-09-19T12:51:56.876Z,3.20
2018-09-19T12:52:57.104Z,3.00
2018-09-19T12:53:57.339Z,2.70
2018-09-19T12:54:57.577Z,3.00
2018-09-19T12:55:57.812Z,2.90
2018-09-19T12:56:58.053Z,3.10
2018-09-19T12:57:58.292Z,3.00
2018-09-19T12:58:58.526Z,3.20
2018-09-19T12:59:58.765Z,2.40
2018-09-19T13:00:59.002Z,2.90
2018-09-19T13:01:59.236Z,2.90
2018-09-19T13:02:59.475Z,2.90
2018-09-19T13:03:59.716Z,3.00
2018-09-19T13:04:59.951Z,3.10
2018-09-19T13:06:00.186Z,3.00
2018-09-19T13:07:00.424Z,3.30
2018-09-19T13:08:00.658Z,3.00
2018-09-19T13:09:00.904Z,2.80
2018-09-19T13:10:01.141Z,2.90
2018-09-19T13:11:01.393Z,3.10
2018-09-19T13:12:01.623Z,3.30
2018-09-19T13:13:01.863Z,3.30
2018-09-19T13:14:02.103Z,3.10
2018-09-19T13:15:02.336Z,2.90